sensor_id;sensor_type;location;lat;lon;timestamp;P1;durP1;ratioP1;P2;durP2;ratioP2
15616;SDS011;7908;51.688;7.130;2024-02-23T00:01:55;0.47;;;0.30;;
15616;SDS011;7908;51.688;7.130;2024-02-23T10:29:41;5.05;;;1.65;;
15616;SDS011;7908;51.688;7.130;2024-02-23T10:32:14;3.43;;;1.37;;
15616;SDS011;7908;51.688;7.130;2024-02-23T10:34:50;6.30;;;1.77;;
15616;SDS011;7908;51.688;7.130;2024-02-23T10:37:21;4.50;;;1.10;;
15616;SDS011;7908;51.688;7.130;2024-02-23T10:39:57;3.67;;;1.17;;
15616;SDS011;7908;51.688;7.130;2024-02-23T10:42:33;3.13;;;1.50;;
15616;SDS011;7908;51.688;7.130;2024-02-23T10:45:07;3.20;;;1.30;;
15616;SDS011;7908;51.688;7.130;2024-02-23T10:47:38;5.63;;;1.20;;
15616;SDS011;7908;51.688;7.130;2024-02-23T10:50:08;4.40;;;1.13;;
15616;SDS011;7908;51.688;7.130;2024-02-23T10:52:46;3.97;;;1.47;;
15616;SDS011;7908;51.688;7.130;2024-02-23T10:55:19;2.93;;;1.13;;
15616;SDS011;7908;51.688;7.130;2024-02-23T10:57:50;4.27;;;1.07;;
15616;SDS011;7908;51.688;7.130;2024-02-23T11:00:24;6.47;;;1.40;;
15616;SDS011;7908;51.688;7.130;2024-02-23T11:03:08;2.70;;;0.97;;
15616;SDS011;7908;51.688;7.130;2024-02-23T11:06:12;6.43;;;1.37;;
15616;SDS011;7908;51.688;7.130;2024-02-23T11:08:44;6.97;;;1.70;;
15616;SDS011;7908;51.688;7.130;2024-02-23T11:11:15;3.00;;;1.00;;
15616;SDS011;7908;51.688;7.130;2024-02-23T11:13:45;5.17;;;1.43;;
15616;SDS011;7908;51.688;7.130;2024-02-23T11:16:23;4.93;;;1.70;;
15616;SDS011;7908;51.688;7.130;2024-02-23T11:19:01;2.90;;;1.00;;
15616;SDS011;7908;51.688;7.130;2024-02-23T11:21:43;3.50;;;1.00;;
15616;SDS011;7908;51.688;7.130;2024-02-23T11:24:34;4.50;;;1.40;;
15616;SDS011;7908;51.688;7.130;2024-02-23T11:27:14;5.60;;;1.27;;
15616;SDS011;7908;51.688;7.130;2024-02-23T11:29:45;7.00;;;1.30;;
15616;SDS011;7908;51.688;7.130;2024-02-23T11:32:16;4.63;;;1.20;;
15616;SDS011;7908;51.688;7.130;2024-02-23T11:34:56;3.17;;;0.83;;
15616;SDS011;7908;51.688;7.130;2024-02-23T11:37:28;3.97;;;1.00;;
15616;SDS011;7908;51.688;7.130;2024-02-23T11:40:02;1.60;;;0.67;;
15616;SDS011;7908;51.688;7.130;2024-02-23T11:42:44;5.87;;;1.20;;
15616;SDS011;7908;51.688;7.130;2024-02-23T11:45:15;4.50;;;0.97;;
15616;SDS011;7908;51.688;7.130;2024-02-23T11:47:45;3.47;;;1.10;;
15616;SDS011;7908;51.688;7.130;2024-02-23T11:50:15;4.37;;;1.30;;
15616;SDS011;7908;51.688;7.130;2024-02-23T11:53:01;2.93;;;1.10;;
15616;SDS011;7908;51.688;7.130;2024-02-23T11:55:45;5.37;;;1.30;;
15616;SDS011;7908;51.688;7.130;2024-02-23T11:58:22;4.00;;;1.00;;
15616;SDS011;7908;51.688;7.130;2024-02-23T12:00:53;2.40;;;1.37;;
15616;SDS011;7908;51.688;7.130;2024-02-23T12:03:23;2.17;;;0.80;;
15616;SDS011;7908;51.688;7.130;2024-02-23T12:05:53;5.30;;;1.13;;
15616;SDS011;7908;51.688;7.130;2024-02-23T12:08:25;3.97;;;1.20;;
15616;SDS011;7908;51.688;7.130;2024-02-23T12:10:55;5.87;;;2.07;;
15616;SDS011;7908;51.688;7.130;2024-02-23T12:13:30;4.07;;;1.20;;
15616;SDS011;7908;51.688;7.130;2024-02-23T12:16:00;4.63;;;1.27;;
15616;SDS011;7908;51.688;7.130;2024-02-23T12:18:35;5.60;;;1.17;;
15616;SDS011;7908;51.688;7.130;2024-02-23T12:21:08;4.30;;;1.20;;
15616;SDS011;7908;51.688;7.130;2024-02-23T12:23:39;3.30;;;1.13;;
15616;SDS011;7908;51.688;7.130;2024-02-23T12:26:14;5.03;;;1.10;;
15616;SDS011;7908;51.688;7.130;2024-02-23T12:28:51;5.47;;;1.70;;
15616;SDS011;7908;51.688;7.130;2024-02-23T12:31:34;4.83;;;1.10;;
15616;SDS011;7908;51.688;7.130;2024-02-23T12:34:15;5.20;;;1.10;;
15616;SDS011;7908;51.688;7.130;2024-02-23T12:36:51;3.63;;;1.10;;
15616;SDS011;7908;51.688;7.130;2024-02-23T12:39:23;7.03;;;1.40;;
15616;SDS011;7908;51.688;7.130;2024-02-23T12:41:58;3.60;;;1.20;;
15616;SDS011;7908;51.688;7.130;2024-02-23T12:44:33;4.73;;;1.83;;
15616;SDS011;7908;51.688;7.130;2024-02-23T12:47:02;3.23;;;1.07;;
15616;SDS011;7908;51.688;7.130;2024-02-23T12:49:34;4.90;;;1.10;;
15616;SDS011;7908;51.688;7.130;2024-02-23T12:52:11;3.87;;;1.37;;
15616;SDS011;7908;51.688;7.130;2024-02-23T12:54:45;3.80;;;0.93;;
15616;SDS011;7908;51.688;7.130;2024-02-23T12:57:18;4.87;;;1.03;;
15616;SDS011;7908;51.688;7.130;2024-02-23T12:59:49;3.50;;;1.13;;
15616;SDS011;7908;51.688;7.130;2024-02-23T13:02:19;4.13;;;1.40;;
15616;SDS011;7908;51.688;7.130;2024-02-23T13:04:52;4.67;;;1.40;;
15616;SDS011;7908;51.688;7.130;2024-02-23T13:07:22;3.03;;;1.27;;
15616;SDS011;7908;51.688;7.130;2024-02-23T13:09:55;4.87;;;1.20;;
15616;SDS011;7908;51.688;7.130;2024-02-23T13:12:24;6.23;;;1.50;;
15616;SDS011;7908;51.688;7.130;2024-02-23T13:14:58;3.13;;;1.13;;
15616;SDS011;7908;51.688;7.130;2024-02-23T13:17:28;4.53;;;1.30;;
15616;SDS011;7908;51.688;7.130;2024-02-23T13:19:58;3.77;;;1.07;;
15616;SDS011;7908;51.688;7.130;2024-02-23T13:22:37;4.20;;;1.00;;
15616;SDS011;7908;51.688;7.130;2024-02-23T13:25:09;6.50;;;1.63;;
15616;SDS011;7908;51.688;7.130;2024-02-23T13:27:50;8.53;;;1.77;;
15616;SDS011;7908;51.688;7.130;2024-02-23T13:30:30;3.83;;;1.70;;
15616;SDS011;7908;51.688;7.130;2024-02-23T13:33:17;4.57;;;1.03;;
15616;SDS011;7908;51.688;7.130;2024-02-23T13:35:54;4.50;;;1.60;;
15616;SDS011;7908;51.688;7.130;2024-02-23T13:38:43;3.50;;;1.20;;
15616;SDS011;7908;51.688;7.130;2024-02-23T13:41:21;4.40;;;1.10;;
15616;SDS011;7908;51.688;7.130;2024-02-23T13:44:03;3.97;;;1.10;;
15616;SDS011;7908;51.688;7.130;2024-02-23T13:46:42;2.97;;;0.90;;
15616;SDS011;7908;51.688;7.130;2024-02-23T13:49:21;3.60;;;1.00;;
15616;SDS011;7908;51.688;7.130;2024-02-23T13:52:00;3.00;;;1.13;;
15616;SDS011;7908;51.688;7.130;2024-02-23T13:54:48;3.93;;;1.20;;
15616;SDS011;7908;51.688;7.130;2024-02-23T13:57:26;8.47;;;1.73;;
15616;SDS011;7908;51.688;7.130;2024-02-23T14:00:03;4.67;;;2.23;;
15616;SDS011;7908;51.688;7.130;2024-02-23T14:02:56;3.93;;;1.40;;
15616;SDS011;7908;51.688;7.130;2024-02-23T14:05:42;6.00;;;1.60;;
15616;SDS011;7908;51.688;7.130;2024-02-23T14:08:31;4.67;;;1.77;;
15616;SDS011;7908;51.688;7.130;2024-02-23T14:11:14;6.33;;;1.20;;
15616;SDS011;7908;51.688;7.130;2024-02-23T14:14:02;5.50;;;1.30;;
15616;SDS011;7908;51.688;7.130;2024-02-23T14:16:37;4.13;;;1.50;;
15616;SDS011;7908;51.688;7.130;2024-02-23T14:19:18;4.40;;;1.13;;
15616;SDS011;7908;51.688;7.130;2024-02-23T14:22:12;4.53;;;1.33;;
15616;SDS011;7908;51.688;7.130;2024-02-23T14:24:50;4.63;;;1.30;;
15616;SDS011;7908;51.688;7.130;2024-02-23T14:27:43;6.20;;;1.17;;
15616;SDS011;7908;51.688;7.130;2024-02-23T14:30:34;4.17;;;1.33;;
15616;SDS011;7908;51.688;7.130;2024-02-23T14:33:28;5.73;;;1.40;;
15616;SDS011;7908;51.688;7.130;2024-02-23T14:36:15;4.77;;;1.43;;
15616;SDS011;7908;51.688;7.130;2024-02-23T14:38:49;5.67;;;1.30;;
15616;SDS011;7908;51.688;7.130;2024-02-23T14:41:21;4.03;;;1.33;;
15616;SDS011;7908;51.688;7.130;2024-02-23T14:44:04;5.03;;;2.00;;
15616;SDS011;7908;51.688;7.130;2024-02-23T14:46:39;8.90;;;1.73;;
15616;SDS011;7908;51.688;7.130;2024-02-23T14:49:10;6.97;;;1.67;;
15616;SDS011;7908;51.688;7.130;2024-02-23T14:51:48;4.13;;;1.33;;
15616;SDS011;7908;51.688;7.130;2024-02-23T14:54:28;4.10;;;1.97;;
15616;SDS011;7908;51.688;7.130;2024-02-23T14:57:02;4.60;;;1.47;;
15616;SDS011;7908;51.688;7.130;2024-02-23T14:59:32;6.80;;;2.63;;
15616;SDS011;7908;51.688;7.130;2024-02-23T15:02:09;4.17;;;1.40;;
15616;SDS011;7908;51.688;7.130;2024-02-23T15:04:52;5.00;;;1.40;;
15616;SDS011;7908;51.688;7.130;2024-02-23T15:07:39;2.77;;;1.20;;
15616;SDS011;7908;51.688;7.130;2024-02-23T15:10:21;5.00;;;1.30;;
15616;SDS011;7908;51.688;7.130;2024-02-23T15:12:53;8.13;;;2.13;;
15616;SDS011;7908;51.688;7.130;2024-02-23T15:15:34;5.13;;;2.13;;
15616;SDS011;7908;51.688;7.130;2024-02-23T15:18:07;5.97;;;2.00;;
15616;SDS011;7908;51.688;7.130;2024-02-23T15:20:37;5.20;;;2.13;;
15616;SDS011;7908;51.688;7.130;2024-02-23T15:23:15;4.67;;;2.20;;
15616;SDS011;7908;51.688;7.130;2024-02-23T15:25:55;5.63;;;2.20;;
15616;SDS011;7908;51.688;7.130;2024-02-23T15:28:37;5.37;;;2.07;;
15616;SDS011;7908;51.688;7.130;2024-02-23T15:31:37;5.33;;;1.30;;
15616;SDS011;7908;51.688;7.130;2024-02-23T15:34:18;3.20;;;1.40;;
15616;SDS011;7908;51.688;7.130;2024-02-23T15:36:57;3.70;;;1.30;;
15616;SDS011;7908;51.688;7.130;2024-02-23T15:39:39;4.90;;;1.30;;
15616;SDS011;7908;51.688;7.130;2024-02-23T15:42:12;5.87;;;1.73;;
15616;SDS011;7908;51.688;7.130;2024-02-23T15:44:48;2.20;;;1.13;;
15616;SDS011;7908;51.688;7.130;2024-02-23T15:47:30;1.90;;;0.90;;
15616;SDS011;7908;51.688;7.130;2024-02-23T15:50:17;3.63;;;1.30;;
15616;SDS011;7908;51.688;7.130;2024-02-23T15:53:10;6.20;;;1.60;;
15616;SDS011;7908;51.688;7.130;2024-02-23T15:55:50;7.10;;;1.93;;
15616;SDS011;7908;51.688;7.130;2024-02-23T15:58:20;3.93;;;1.90;;
15616;SDS011;7908;51.688;7.130;2024-02-23T16:00:52;6.00;;;3.40;;
15616;SDS011;7908;51.688;7.130;2024-02-23T16:03:24;8.53;;;4.33;;
15616;SDS011;7908;51.688;7.130;2024-02-23T16:06:09;4.97;;;1.60;;
15616;SDS011;7908;51.688;7.130;2024-02-23T16:08:46;3.77;;;1.90;;
15616;SDS011;7908;51.688;7.130;2024-02-23T16:11:27;3.40;;;2.00;;
15616;SDS011;7908;51.688;7.130;2024-02-23T16:14:05;3.97;;;2.50;;
15616;SDS011;7908;51.688;7.130;2024-02-23T16:16:58;4.83;;;1.23;;
15616;SDS011;7908;51.688;7.130;2024-02-23T16:19:35;3.40;;;1.13;;
15616;SDS011;7908;51.688;7.130;2024-02-23T16:22:18;3.73;;;1.40;;
15616;SDS011;7908;51.688;7.130;2024-02-23T16:24:54;2.90;;;1.80;;
15616;SDS011;7908;51.688;7.130;2024-02-23T16:27:26;5.90;;;3.13;;
15616;SDS011;7908;51.688;7.130;2024-02-23T16:30:02;12.00;;;6.57;;
15616;SDS011;7908;51.688;7.130;2024-02-23T16:32:39;9.47;;;5.40;;
15616;SDS011;7908;51.688;7.130;2024-02-23T16:35:25;6.20;;;3.80;;
15616;SDS011;7908;51.688;7.130;2024-02-23T16:38:02;3.03;;;2.40;;
15616;SDS011;7908;51.688;7.130;2024-02-23T16:40:38;4.57;;;3.70;;
15616;SDS011;7908;51.688;7.130;2024-02-23T16:43:16;6.13;;;2.33;;
15616;SDS011;7908;51.688;7.130;2024-02-23T16:46:04;7.27;;;4.27;;
15616;SDS011;7908;51.688;7.130;2024-02-23T16:48:35;4.43;;;2.10;;
15616;SDS011;7908;51.688;7.130;2024-02-23T16:51:19;4.43;;;2.80;;
15616;SDS011;7908;51.688;7.130;2024-02-23T16:53:56;5.00;;;2.30;;
15616;SDS011;7908;51.688;7.130;2024-02-23T16:56:34;4.33;;;2.37;;
15616;SDS011;7908;51.688;7.130;2024-02-23T16:59:08;3.10;;;2.23;;
15616;SDS011;7908;51.688;7.130;2024-02-23T17:01:48;4.27;;;3.03;;
15616;SDS011;7908;51.688;7.130;2024-02-23T17:04:35;6.53;;;3.23;;
15616;SDS011;7908;51.688;7.130;2024-02-23T17:07:22;7.17;;;4.27;;
15616;SDS011;7908;51.688;7.130;2024-02-23T17:10:06;8.17;;;4.77;;
15616;SDS011;7908;51.688;7.130;2024-02-23T17:12:46;8.77;;;5.70;;
15616;SDS011;7908;51.688;7.130;2024-02-23T17:15:26;13.57;;;9.07;;
15616;SDS011;7908;51.688;7.130;2024-02-23T17:18:03;17.03;;;10.27;;
15616;SDS011;7908;51.688;7.130;2024-02-23T17:20:43;22.10;;;14.00;;
15616;SDS011;7908;51.688;7.130;2024-02-23T17:23:29;14.63;;;8.97;;
15616;SDS011;7908;51.688;7.130;2024-02-23T17:26:00;10.43;;;6.77;;
15616;SDS011;7908;51.688;7.130;2024-02-23T17:28:52;11.80;;;6.40;;
15616;SDS011;7908;51.688;7.130;2024-02-23T17:31:27;10.03;;;6.50;;
15616;SDS011;7908;51.688;7.130;2024-02-23T17:33:57;10.63;;;7.03;;
15616;SDS011;7908;51.688;7.130;2024-02-23T17:36:35;10.50;;;5.87;;
15616;SDS011;7908;51.688;7.130;2024-02-23T17:39:16;8.00;;;5.63;;
15616;SDS011;7908;51.688;7.130;2024-02-23T17:41:48;6.53;;;3.70;;
15616;SDS011;7908;51.688;7.130;2024-02-23T17:44:32;15.40;;;10.53;;
15616;SDS011;7908;51.688;7.130;2024-02-23T17:47:11;6.13;;;4.50;;
15616;SDS011;7908;51.688;7.130;2024-02-23T17:49:51;4.97;;;3.10;;
15616;SDS011;7908;51.688;7.130;2024-02-23T17:52:34;5.83;;;3.23;;
15616;SDS011;7908;51.688;7.130;2024-02-23T17:55:22;5.43;;;2.80;;
15616;SDS011;7908;51.688;7.130;2024-02-23T17:58:04;6.47;;;3.20;;
15616;SDS011;7908;51.688;7.130;2024-02-23T18:00:46;5.50;;;3.87;;
15616;SDS011;7908;51.688;7.130;2024-02-23T18:03:24;5.57;;;3.30;;
15616;SDS011;7908;51.688;7.130;2024-02-23T18:06:08;5.87;;;3.10;;
15616;SDS011;7908;51.688;7.130;2024-02-23T18:08:43;4.87;;;3.30;;
15616;SDS011;7908;51.688;7.130;2024-02-23T18:11:15;4.87;;;3.17;;
15616;SDS011;7908;51.688;7.130;2024-02-23T18:13:46;4.47;;;2.97;;
15616;SDS011;7908;51.688;7.130;2024-02-23T18:16:23;6.90;;;3.23;;
15616;SDS011;7908;51.688;7.130;2024-02-23T18:19:05;5.83;;;3.40;;
15616;SDS011;7908;51.688;7.130;2024-02-23T18:22:19;21.33;;;14.57;;
15616;SDS011;7908;51.688;7.130;2024-02-23T18:24:53;17.30;;;12.37;;
15616;SDS011;7908;51.688;7.130;2024-02-23T18:27:23;13.80;;;9.30;;
15616;SDS011;7908;51.688;7.130;2024-02-23T18:29:54;11.80;;;9.10;;
15616;SDS011;7908;51.688;7.130;2024-02-23T18:32:50;14.47;;;9.70;;
15616;SDS011;7908;51.688;7.130;2024-02-23T18:35:28;14.50;;;9.67;;
15616;SDS011;7908;51.688;7.130;2024-02-23T18:38:16;17.33;;;12.00;;
15616;SDS011;7908;51.688;7.130;2024-02-23T18:41:01;22.47;;;15.87;;
15616;SDS011;7908;51.688;7.130;2024-02-23T18:43:42;23.27;;;17.73;;
15616;SDS011;7908;51.688;7.130;2024-02-23T18:46:23;20.97;;;14.90;;
15616;SDS011;7908;51.688;7.130;2024-02-23T18:49:08;35.47;;;25.03;;
15616;SDS011;7908;51.688;7.130;2024-02-23T18:55:08;38.13;;;24.60;;
15616;SDS011;7908;51.688;7.130;2024-02-23T18:57:49;39.10;;;24.30;;
15616;SDS011;7908;51.688;7.130;2024-02-23T19:00:42;49.73;;;30.47;;
15616;SDS011;7908;51.688;7.130;2024-02-23T19:03:16;72.50;;;41.97;;
15616;SDS011;7908;51.688;7.130;2024-02-23T19:05:49;30.70;;;21.10;;
15616;SDS011;7908;51.688;7.130;2024-02-23T19:08:36;19.33;;;14.07;;
15616;SDS011;7908;51.688;7.130;2024-02-23T19:11:18;22.53;;;16.20;;
15616;SDS011;7908;51.688;7.130;2024-02-23T19:13:53;18.10;;;13.53;;
15616;SDS011;7908;51.688;7.130;2024-02-23T19:16:31;19.60;;;14.97;;
15616;SDS011;7908;51.688;7.130;2024-02-23T19:19:11;18.90;;;15.73;;
15616;SDS011;7908;51.688;7.130;2024-02-23T19:21:46;19.60;;;14.57;;
15616;SDS011;7908;51.688;7.130;2024-02-23T19:24:39;16.97;;;12.63;;
15616;SDS011;7908;51.688;7.130;2024-02-23T19:27:21;16.60;;;12.77;;
15616;SDS011;7908;51.688;7.130;2024-02-23T19:30:17;13.10;;;11.50;;
15616;SDS011;7908;51.688;7.130;2024-02-23T19:32:47;14.53;;;11.87;;
15616;SDS011;7908;51.688;7.130;2024-02-23T19:35:31;18.63;;;10.80;;
15616;SDS011;7908;51.688;7.130;2024-02-23T19:38:10;13.93;;;10.77;;
15616;SDS011;7908;51.688;7.130;2024-02-23T19:41:02;12.30;;;10.60;;
15616;SDS011;7908;51.688;7.130;2024-02-23T19:43:42;13.67;;;8.47;;
15616;SDS011;7908;51.688;7.130;2024-02-23T19:46:18;10.33;;;7.67;;
15616;SDS011;7908;51.688;7.130;2024-02-23T19:48:54;9.20;;;7.27;;
15616;SDS011;7908;51.688;7.130;2024-02-23T19:51:37;11.97;;;6.83;;
15616;SDS011;7908;51.688;7.130;2024-02-23T19:54:18;12.00;;;6.50;;
15616;SDS011;7908;51.688;7.130;2024-02-23T19:57:05;7.77;;;5.70;;
15616;SDS011;7908;51.688;7.130;2024-02-23T19:59:45;7.13;;;5.60;;
15616;SDS011;7908;51.688;7.130;2024-02-23T20:02:31;11.20;;;5.60;;
15616;SDS011;7908;51.688;7.130;2024-02-23T20:05:21;9.33;;;4.67;;
15616;SDS011;7908;51.688;7.130;2024-02-23T20:08:05;8.37;;;3.93;;
15616;SDS011;7908;51.688;7.130;2024-02-23T20:10:53;7.57;;;4.27;;
15616;SDS011;7908;51.688;7.130;2024-02-23T20:13:27;6.80;;;3.73;;
15616;SDS011;7908;51.688;7.130;2024-02-23T20:16:20;9.00;;;3.73;;
15616;SDS011;7908;51.688;7.130;2024-02-23T20:19:19;7.37;;;3.07;;
15616;SDS011;7908;51.688;7.130;2024-02-23T20:21:57;5.47;;;3.07;;
15616;SDS011;7908;51.688;7.130;2024-02-23T20:24:54;5.33;;;2.80;;
15616;SDS011;7908;51.688;7.130;2024-02-23T20:27:23;8.70;;;3.20;;
15616;SDS011;7908;51.688;7.130;2024-02-23T20:30:01;9.50;;;3.50;;
15616;SDS011;7908;51.688;7.130;2024-02-23T20:32:52;5.60;;;3.17;;
15616;SDS011;7908;51.688;7.130;2024-02-23T20:35:42;8.27;;;3.63;;
15616;SDS011;7908;51.688;7.130;2024-02-23T20:38:26;8.63;;;3.33;;
15616;SDS011;7908;51.688;7.130;2024-02-23T20:41:09;8.47;;;3.00;;
15616;SDS011;7908;51.688;7.130;2024-02-23T20:44:20;6.77;;;2.90;;
15616;SDS011;7908;51.688;7.130;2024-02-23T20:47:12;7.53;;;2.80;;
15616;SDS011;7908;51.688;7.130;2024-02-23T20:49:55;7.17;;;2.30;;
15616;SDS011;7908;51.688;7.130;2024-02-23T20:52:30;5.97;;;2.00;;
15616;SDS011;7908;51.688;7.130;2024-02-23T20:55:15;6.47;;;2.53;;
15616;SDS011;7908;51.688;7.130;2024-02-23T20:57:48;15.63;;;10.37;;
15616;SDS011;7908;51.688;7.130;2024-02-23T21:00:28;31.57;;;19.67;;
15616;SDS011;7908;51.688;7.130;2024-02-23T21:03:05;28.43;;;17.67;;
15616;SDS011;7908;51.688;7.130;2024-02-23T21:05:35;27.30;;;15.40;;
15616;SDS011;7908;51.688;7.130;2024-02-23T21:08:40;37.83;;;23.20;;
15616;SDS011;7908;51.688;7.130;2024-02-23T21:12:06;6.57;;;4.03;;
15616;SDS011;7908;51.688;7.130;2024-02-23T21:14:52;6.40;;;3.43;;
15616;SDS011;7908;51.688;7.130;2024-02-23T21:17:25;6.77;;;2.63;;
15616;SDS011;7908;51.688;7.130;2024-02-23T21:20:12;7.77;;;3.03;;
15616;SDS011;7908;51.688;7.130;2024-02-23T21:22:58;8.00;;;3.10;;
15616;SDS011;7908;51.688;7.130;2024-02-23T21:25:42;5.37;;;2.60;;
15616;SDS011;7908;51.688;7.130;2024-02-23T21:28:34;5.57;;;2.67;;
15616;SDS011;7908;51.688;7.130;2024-02-23T21:31:05;4.63;;;2.47;;
15616;SDS011;7908;51.688;7.130;2024-02-23T21:33:38;5.00;;;2.20;;
15616;SDS011;7908;51.688;7.130;2024-02-23T21:36:17;3.60;;;1.90;;
15616;SDS011;7908;51.688;7.130;2024-02-23T21:38:49;4.70;;;1.60;;
15616;SDS011;7908;51.688;7.130;2024-02-23T21:41:20;3.50;;;1.90;;
15616;SDS011;7908;51.688;7.130;2024-02-23T21:43:53;3.53;;;2.00;;
15616;SDS011;7908;51.688;7.130;2024-02-23T21:46:29;4.50;;;1.70;;
15616;SDS011;7908;51.688;7.130;2024-02-23T21:49:24;5.93;;;2.03;;
15616;SDS011;7908;51.688;7.130;2024-02-23T21:52:04;4.43;;;2.40;;
15616;SDS011;7908;51.688;7.130;2024-02-23T21:54:36;3.57;;;1.80;;
15616;SDS011;7908;51.688;7.130;2024-02-23T21:57:11;4.87;;;1.70;;
15616;SDS011;7908;51.688;7.130;2024-02-23T21:59:47;5.10;;;2.10;;
15616;SDS011;7908;51.688;7.130;2024-02-23T22:02:29;4.27;;;2.23;;
15616;SDS011;7908;51.688;7.130;2024-02-23T22:05:01;5.30;;;2.40;;
15616;SDS011;7908;51.688;7.130;2024-02-23T22:07:43;4.20;;;2.10;;
15616;SDS011;7908;51.688;7.130;2024-02-23T22:10:16;4.80;;;2.23;;
15616;SDS011;7908;51.688;7.130;2024-02-23T22:12:50;4.87;;;2.30;;
15616;SDS011;7908;51.688;7.130;2024-02-23T22:15:21;5.90;;;2.40;;
15616;SDS011;7908;51.688;7.130;2024-02-23T22:17:57;5.07;;;2.30;;
15616;SDS011;7908;51.688;7.130;2024-02-23T22:20:31;5.33;;;2.40;;
15616;SDS011;7908;51.688;7.130;2024-02-23T22:23:24;4.27;;;2.40;;
15616;SDS011;7908;51.688;7.130;2024-02-23T22:26:00;4.30;;;2.40;;
15616;SDS011;7908;51.688;7.130;2024-02-23T22:28:36;3.20;;;2.70;;
15616;SDS011;7908;51.688;7.130;2024-02-23T22:31:05;4.73;;;2.57;;
15616;SDS011;7908;51.688;7.130;2024-02-23T22:33:39;4.20;;;2.10;;
